Terminal Aerodrome Forecast
Issued by NWS

Home | Current Version | Previous Version | Text Only | Print | Product List | Glossary Off
Versions: 1 2 3 4 5 6 7 8 9 10 11 12 13 14 15 16 17 18 19 20 21 22

961
FTUS43 KTOP 141141
TAFFOE
TAF
KFOE 141141Z 1412/1512 01004KT P6SM OVC022
     FM150200 04004KT P6SM VCSH OVC012
     FM150600 04004KT 3SM FZRA BR OVC006=

USA.gov is the U.S. government's official web portal to all federal, state and local government web resources and services.